Time;durP1;ratioP1;P1;durP2;ratioP2;P2;SDS_P1;SDS_P2;PMS_P1;PMS_P2;Temp;Humidity;BMP_temperature;BMP_pressure;BME280_temperature;BME280_humidity;BME280_pressure;Samples;Min_cycle;Max_cycle;Signal;HPM_P1;HPM_P2
2021/12/21 00:03:37;;;;;;;2.50;2.10;;;17.80;63.20;;;;;;10441898;28;20220;-64
2021/12/21 00:08:59;;;;;;;2.97;2.30;;;17.80;63.10;;;;;;10447399;28;20224;-64
2021/12/21 00:14:31;;;;;;;3.87;2.60;;;17.80;63.10;;;;;;10448651;28;20674;-65
2021/12/21 00:20:09;;;;;;;3.13;2.47;;;17.80;63.10;;;;;;10454582;28;20205;-64
2021/12/21 00:25:31;;;;;;;3.23;2.03;;;17.80;63.10;;;;;;10456134;28;20759;-65
2021/12/21 00:30:55;;;;;;;3.23;2.47;;;17.80;63.10;;;;;;10455478;28;20221;-64
2021/12/21 00:36:19;;;;;;;3.00;2.40;;;17.80;63.10;;;;;;10456778;28;20547;-64
2021/12/21 00:41:41;;;;;;;2.67;2.30;;;17.80;63.00;;;;;;10455616;28;20574;-64
2021/12/21 00:47:05;;;;;;;3.20;2.63;;;17.80;63.00;;;;;;10455169;28;20217;-65
2021/12/21 00:52:28;;;;;;;2.97;2.60;;;17.80;62.90;;;;;;10455883;28;20188;-65
2021/12/21 00:57:50;;;;;;;2.33;2.13;;;17.80;63.00;;;;;;10454878;28;20216;-65
2021/12/21 01:03:14;;;;;;;2.63;2.23;;;17.80;63.00;;;;;;10454712;28;20204;-64
2021/12/21 01:08:47;;;;;;;2.90;2.30;;;17.80;62.90;;;;;;10453988;28;20217;-64
2021/12/21 01:14:36;;;;;;;3.23;2.50;;;17.80;62.90;;;;;;10454072;28;20278;-65
2021/12/21 01:20:03;;;;;;;3.03;1.97;;;17.80;62.90;;;;;;10454833;28;20205;-66
2021/12/21 01:25:37;;;;;;;3.07;2.30;;;17.80;62.90;;;;;;10453934;28;20205;-62
2021/12/21 01:31:06;;;;;;;3.10;2.50;;;17.80;62.90;;;;;;10453065;28;20267;-66
2021/12/21 01:36:36;;;;;;;2.87;2.33;;;17.80;62.90;;;;;;10429115;28;20252;-64
2021/12/21 01:42:04;;;;;;;2.93;1.93;;;17.80;62.80;;;;;;10412598;28;20198;-62
2021/12/21 01:53:07;;;;;;;2.77;2.23;;;17.80;62.80;;;;;;10412261;28;20197;-62
2021/12/21 01:58:29;;;;;;;3.33;2.40;;;17.80;62.80;;;;;;10411894;28;20233;-67
2021/12/21 02:03:52;;;;;;;2.77;2.00;;;17.80;62.80;;;;;;10411441;28;20599;-62
2021/12/21 02:09:16;;;;;;;3.50;2.30;;;17.80;62.70;;;;;;10430423;28;20225;-63
2021/12/21 02:14:40;;;;;;;2.60;2.03;;;17.80;62.70;;;;;;10410694;28;20196;-63
2021/12/21 02:20:12;;;;;;;2.60;2.00;;;17.80;62.80;;;;;;10411609;28;20412;-62
2021/12/21 02:25:54;;;;;;;2.77;2.00;;;17.80;62.70;;;;;;10409704;28;20209;-63
2021/12/21 02:31:17;;;;;;;2.30;2.03;;;17.80;62.70;;;;;;10450227;28;20221;-62
2021/12/21 02:36:42;;;;;;;2.30;1.90;;;17.70;62.60;;;;;;10451450;28;20217;-62
2021/12/21 02:42:05;;;;;;;1.97;1.70;;;17.80;62.60;;;;;;10413320;28;20197;-63
2021/12/21 02:47:28;;;;;;;1.90;1.70;;;17.80;62.60;;;;;;10410387;28;20710;-62
2021/12/21 02:52:51;;;;;;;2.67;1.90;;;17.80;62.60;;;;;;10409762;28;20201;-63
2021/12/21 02:58:14;;;;;;;2.47;1.83;;;17.80;62.60;;;;;;10409726;28;20217;-63
2021/12/21 03:03:36;;;;;;;2.80;1.90;;;17.80;62.60;;;;;;10409476;28;20209;-63
2021/12/21 03:08:59;;;;;;;1.63;1.53;;;17.80;62.50;;;;;;10437329;28;20229;-63
2021/12/21 03:14:22;;;;;;;2.00;1.77;;;17.80;62.50;;;;;;10450098;28;20858;-62
2021/12/21 03:19:44;;;;;;;2.00;1.73;;;17.70;62.40;;;;;;10449793;28;20212;-63
2021/12/21 03:25:09;;;;;;;2.03;1.67;;;17.80;62.50;;;;;;10448528;28;20204;-62
2021/12/21 03:30:31;;;;;;;2.20;1.80;;;17.80;62.50;;;;;;10433591;28;20235;-67
2021/12/21 03:35:53;;;;;;;2.03;1.63;;;17.80;62.40;;;;;;10449173;28;20197;-63
2021/12/21 03:41:18;;;;;;;1.73;1.50;;;17.70;62.30;;;;;;10448839;28;20236;-63
2021/12/21 03:46:45;;;;;;;2.13;1.70;;;17.70;62.30;;;;;;10449933;28;20701;-65
2021/12/21 03:52:11;;;;;;;2.10;1.50;;;17.70;62.30;;;;;;10449946;28;20326;-63
2021/12/21 03:57:34;;;;;;;2.03;1.53;;;17.70;62.30;;;;;;10453559;23;20268;-68
2021/12/21 04:02:57;;;;;;;2.30;1.70;;;17.70;62.30;;;;;;10410195;28;20740;-68
2021/12/21 04:08:19;;;;;;;2.23;1.50;;;17.70;62.30;;;;;;10414790;28;20218;-68
2021/12/21 04:13:42;;;;;;;1.73;1.47;;;17.70;62.30;;;;;;10397805;28;20205;-68
2021/12/21 04:19:05;;;;;;;2.07;1.53;;;17.70;62.20;;;;;;10415379;28;20556;-68
2021/12/21 04:24:27;;;;;;;2.20;1.63;;;17.70;62.20;;;;;;10415972;28;20198;-68
2021/12/21 04:29:50;;;;;;;1.50;1.40;;;17.70;62.20;;;;;;10376595;28;20214;-68
2021/12/21 04:35:15;;;;;;;2.53;1.73;;;17.70;62.20;;;;;;10401100;28;20197;-68
2021/12/21 04:40:41;;;;;;;2.03;1.80;;;17.70;62.20;;;;;;10417045;28;20224;-68
2021/12/21 04:46:06;;;;;;;1.60;1.50;;;17.70;62.20;;;;;;10416452;28;20197;-68
2021/12/21 04:51:28;;;;;;;1.50;1.40;;;17.80;62.20;;;;;;10410205;28;20232;-69
2021/12/21 04:56:50;;;;;;;2.30;1.63;;;17.70;62.80;;;;;;10416095;28;20235;-68
2021/12/21 05:02:14;;;;;;;2.27;1.50;;;17.80;62.20;;;;;;10414811;28;20667;-68
2021/12/21 05:07:38;;;;;;;1.83;1.40;;;17.80;62.20;;;;;;10414240;28;20217;-68
2021/12/21 05:13:01;;;;;;;1.40;1.30;;;17.80;62.20;;;;;;10414528;28;20228;-68
2021/12/21 05:18:25;;;;;;;2.70;1.70;;;17.70;62.00;;;;;;10414268;28;20221;-68
2021/12/21 05:23:47;;;;;;;2.83;1.20;;;17.70;62.00;;;;;;10413302;28;20190;-68
2021/12/21 05:29:09;;;;;;;1.37;1.27;;;17.70;62.00;;;;;;10424754;28;20218;-68
2021/12/21 05:34:33;;;;;;;2.60;1.60;;;17.70;62.00;;;;;;10431399;28;20578;-68
2021/12/21 05:39:59;;;;;;;1.73;1.37;;;17.70;62.00;;;;;;10418499;28;20218;-68
2021/12/21 05:45:21;;;;;;;1.30;1.10;;;17.70;61.90;;;;;;10412754;28;20691;-68
2021/12/21 05:50:47;;;;;;;1.53;1.43;;;17.70;61.90;;;;;;10403296;28;20218;-68
2021/12/21 05:56:09;;;;;;;1.33;1.10;;;17.70;61.90;;;;;;10410701;28;20201;-68
2021/12/21 06:01:33;;;;;;;1.30;1.20;;;17.70;61.90;;;;;;10410141;28;20705;-66
2021/12/21 06:06:56;;;;;;;1.77;1.37;;;17.70;61.80;;;;;;10412970;28;20221;-68
2021/12/21 06:12:33;;;;;;;2.60;1.63;;;17.70;61.70;;;;;;10408920;28;20253;-67
2021/12/21 06:24:41;;;;;;;2.10;1.33;;;17.70;61.70;;;;;;10245010;29;20208;-68
2021/12/21 06:29:43;;;;;;;1.73;1.40;;;17.70;61.70;;;;;;10408452;28;20275;-67
2021/12/21 06:35:07;;;;;;;1.93;1.40;;;17.70;61.60;;;;;;10411103;28;20204;-67
2021/12/21 06:40:32;;;;;;;1.83;1.20;;;17.70;61.60;;;;;;10409926;28;20572;-67
2021/12/21 06:46:01;;;;;;;2.17;1.50;;;17.70;61.50;;;;;;10409080;28;20209;-68
2021/12/21 06:51:30;;;;;;;2.23;1.67;;;17.70;61.50;;;;;;10401463;28;20289;-68
2021/12/21 06:56:54;;;;;;;1.30;1.20;;;17.70;61.50;;;;;;10402976;28;20226;-67
2021/12/21 07:02:17;;;;;;;2.00;1.60;;;17.70;61.50;;;;;;10409180;28;20190;-68
2021/12/21 07:07:40;;;;;;;2.60;1.40;;;17.70;61.50;;;;;;10387450;28;20244;-71
2021/12/21 07:18:44;;;;;;;2.37;1.70;;;17.60;61.20;;;;;;10391790;28;20217;-68
2021/12/21 07:24:07;;;;;;;2.53;1.53;;;17.60;61.60;;;;;;10395055;28;20190;-69
2021/12/21 07:29:31;;;;;;;2.13;1.30;;;17.60;61.50;;;;;;10381712;28;20233;-68
2021/12/21 07:34:53;;;;;;;1.53;1.43;;;17.60;61.40;;;;;;10394357;28;20202;-68
2021/12/21 07:40:15;;;;;;;1.87;1.60;;;17.60;61.50;;;;;;10402624;28;20602;-68
2021/12/21 07:45:40;;;;;;;2.17;1.40;;;17.50;61.60;;;;;;10406273;28;20197;-68
2021/12/21 07:51:02;;;;;;;1.47;1.33;;;17.50;61.70;;;;;;10393624;28;20226;-68
2021/12/21 07:56:25;;;;;;;1.87;1.37;;;17.60;61.80;;;;;;10404882;28;20213;-68
2021/12/21 08:01:49;;;;;;;1.70;1.47;;;17.50;61.80;;;;;;10405880;28;20205;-68
2021/12/21 08:07:16;;;;;;;1.80;1.20;;;17.50;61.80;;;;;;10394391;28;20221;-68
2021/12/21 08:12:39;;;;;;;1.63;1.47;;;17.50;61.70;;;;;;10399417;28;20220;-68
2021/12/21 08:18:03;;;;;;;2.03;1.50;;;17.50;61.80;;;;;;10402392;28;20617;-67
2021/12/21 08:23:25;;;;;;;1.90;1.50;;;17.50;61.80;;;;;;10397165;28;20202;-68
2021/12/21 08:28:48;;;;;;;2.37;1.97;;;17.50;61.70;;;;;;10405058;28;20214;-68
2021/12/21 08:34:11;;;;;;;1.90;1.20;;;17.50;61.90;;;;;;10404385;28;20202;-68
2021/12/21 08:39:39;;;;;;;2.30;1.90;;;17.50;61.90;;;;;;10400385;28;20217;-68
2021/12/21 08:45:06;;;;;;;1.90;1.70;;;17.50;61.90;;;;;;10412160;28;20194;-68
2021/12/21 08:50:30;;;;;;;1.87;1.67;;;17.50;61.90;;;;;;10411881;28;20583;-68
2021/12/21 08:55:53;;;;;;;1.83;1.70;;;17.50;61.90;;;;;;10395091;28;20214;-68
2021/12/21 09:01:16;;;;;;;2.17;1.67;;;17.50;62.00;;;;;;10405107;28;20206;-68
2021/12/21 09:06:40;;;;;;;2.80;1.97;;;17.50;62.30;;;;;;10411475;28;20230;-68
2021/12/21 09:12:02;;;;;;;2.30;1.77;;;17.50;62.30;;;;;;10411475;28;20221;-68
2021/12/21 09:17:25;;;;;;;2.03;1.50;;;17.50;62.20;;;;;;10408427;28;20671;-68
2021/12/21 09:22:49;;;;;;;2.33;2.13;;;17.50;62.20;;;;;;10411925;28;20205;-67
2021/12/21 09:28:11;;;;;;;2.47;1.77;;;17.50;62.30;;;;;;10409942;28;20592;-68
2021/12/21 09:33:34;;;;;;;2.00;1.50;;;17.50;62.30;;;;;;10403353;28;20222;-67
2021/12/21 09:38:58;;;;;;;3.10;2.10;;;17.50;62.30;;;;;;10406246;28;20586;-67
2021/12/21 09:44:20;;;;;;;2.20;1.90;;;17.50;62.30;;;;;;10406511;28;20566;-67
2021/12/21 09:49:45;;;;;;;2.97;1.90;;;17.50;62.60;;;;;;10402259;28;20229;-68
2021/12/21 09:55:11;;;;;;;2.17;1.70;;;17.50;62.40;;;;;;10423573;22;20201;-63
2021/12/21 10:00:34;;;;;;;2.47;1.70;;;17.50;62.40;;;;;;10442257;28;20213;-62
2021/12/21 10:06:04;;;;;;;2.00;1.47;;;17.50;62.40;;;;;;10446337;28;20276;-62
2021/12/21 10:11:28;;;;;;;2.63;1.73;;;17.50;62.40;;;;;;10451669;28;20225;-62
2021/12/21 10:17:01;;;;;;;2.40;1.53;;;17.50;62.50;;;;;;10449640;28;21266;-62
2021/12/21 10:22:23;;;;;;;1.77;1.67;;;17.50;62.50;;;;;;10446115;28;20204;-63
2021/12/21 10:27:48;;;;;;;3.37;2.07;;;17.50;62.70;;;;;;10449778;28;20213;-62
2021/12/21 10:33:11;;;;;;;2.10;1.63;;;17.40;62.60;;;;;;10444156;28;20223;-63
2021/12/21 10:38:35;;;;;;;2.00;1.40;;;17.50;62.70;;;;;;10445011;28;20213;-62
2021/12/21 10:44:02;;;;;;;1.70;1.27;;;17.50;62.70;;;;;;10449223;28;20196;-62
2021/12/21 10:49:26;;;;;;;1.67;1.40;;;17.50;62.70;;;;;;10440858;28;20221;-66
2021/12/21 10:54:49;;;;;;;1.87;1.63;;;17.50;62.60;;;;;;10449585;28;20189;-63
2021/12/21 11:00:16;;;;;;;1.80;1.50;;;17.50;62.70;;;;;;10443957;28;20682;-63
2021/12/21 11:05:38;;;;;;;2.93;1.60;;;17.50;62.60;;;;;;10444195;28;20655;-62
2021/12/21 11:11:00;;;;;;;1.90;1.67;;;17.50;63.10;;;;;;10442260;28;20239;-62
2021/12/21 11:16:30;;;;;;;2.07;1.60;;;17.50;62.80;;;;;;10445285;28;20220;-63
2021/12/21 11:21:52;;;;;;;2.27;1.60;;;17.60;62.50;;;;;;10435874;28;20571;-65
2021/12/21 11:27:16;;;;;;;1.73;1.57;;;17.50;62.40;;;;;;10443359;28;20221;-62
2021/12/21 11:32:43;;;;;;;2.43;1.87;;;17.50;62.50;;;;;;10441005;28;20240;-63
2021/12/21 11:38:07;;;;;;;2.40;1.50;;;17.50;62.70;;;;;;10446572;28;20219;-62
2021/12/21 11:43:37;;;;;;;1.73;1.30;;;17.50;62.70;;;;;;10448186;28;20193;-62
2021/12/21 11:49:10;;;;;;;1.53;1.30;;;17.50;63.50;;;;;;10436710;28;20221;-61
2021/12/21 11:54:43;;;;;;;1.50;1.33;;;17.60;63.00;;;;;;10445823;28;20208;-64
2021/12/21 12:00:09;;;;;;;1.73;1.53;;;17.60;62.80;;;;;;10438133;28;20219;-62
2021/12/21 12:05:34;;;;;;;1.37;1.27;;;17.60;62.80;;;;;;10448166;28;20201;-62
2021/12/21 12:10:58;;;;;;;1.87;1.50;;;17.70;62.70;;;;;;10431081;28;20308;-62
2021/12/21 12:16:20;;;;;;;1.33;1.17;;;17.70;62.70;;;;;;10450624;28;20197;-63
2021/12/21 12:21:54;;;;;;;1.83;1.50;;;17.60;62.60;;;;;;10454026;28;20193;-66
2021/12/21 12:27:24;;;;;;;1.70;1.47;;;17.70;62.40;;;;;;10455096;28;20217;-63
2021/12/21 12:32:53;;;;;;;1.77;1.50;;;17.70;62.50;;;;;;10443108;28;20209;-61
2021/12/21 12:38:21;;;;;;;1.40;1.30;;;17.70;62.50;;;;;;10450735;28;20213;-64
2021/12/21 12:43:44;;;;;;;1.67;1.53;;;17.70;62.50;;;;;;10452797;28;20197;-63
2021/12/21 12:49:07;;;;;;;3.33;1.67;;;17.70;62.50;;;;;;10450939;28;20283;-61
2021/12/21 12:54:30;;;;;;;2.37;1.50;;;17.70;62.50;;;;;;10452575;28;20221;-61
2021/12/21 12:59:54;;;;;;;1.90;1.60;;;17.70;62.40;;;;;;10455735;28;20224;-62
2021/12/21 13:05:17;;;;;;;2.80;1.50;;;17.70;62.40;;;;;;10462020;28;20531;-63
2021/12/21 13:10:42;;;;;;;1.70;1.60;;;17.70;62.30;;;;;;10447883;28;20221;-63
2021/12/21 13:16:07;;;;;;;1.50;1.40;;;17.70;62.30;;;;;;10417513;28;20228;-63
2021/12/21 13:21:32;;;;;;;1.77;1.37;;;17.70;62.20;;;;;;10453173;28;20315;-63
2021/12/21 13:26:58;;;;;;;1.83;1.50;;;17.60;62.10;;;;;;10436235;28;20305;-62
2021/12/21 13:32:22;;;;;;;2.03;1.47;;;17.70;62.10;;;;;;10433388;28;20242;-64
2021/12/21 13:37:46;;;;;;;2.37;1.60;;;17.70;62.00;;;;;;10452606;28;20343;-67
2021/12/21 13:43:13;;;;;;;2.43;1.50;;;17.70;62.00;;;;;;10430877;28;20204;-62
2021/12/21 13:48:36;;;;;;;2.20;1.50;;;17.70;62.00;;;;;;10433588;28;20252;-63
2021/12/21 13:53:59;;;;;;;1.73;1.40;;;17.70;62.00;;;;;;10435388;28;20305;-63
2021/12/21 13:59:23;;;;;;;1.80;1.70;;;17.70;62.00;;;;;;10434379;28;20237;-61
2021/12/21 14:04:59;;;;;;;1.60;1.40;;;17.70;62.00;;;;;;10436302;28;20193;-60
2021/12/21 14:10:22;;;;;;;2.13;1.40;;;17.70;62.00;;;;;;10433794;28;20220;-59
2021/12/21 14:15:47;;;;;;;3.10;1.70;;;17.70;62.00;;;;;;10445229;28;20224;-64
2021/12/21 14:21:13;;;;;;;2.27;1.83;;;17.70;62.00;;;;;;10451720;28;20613;-60
2021/12/21 14:26:40;;;;;;;1.93;1.40;;;17.70;62.00;;;;;;10450214;28;20197;-64
2021/12/21 14:32:16;;;;;;;2.53;1.63;;;17.70;61.90;;;;;;10450676;28;20209;-60
2021/12/21 14:37:38;;;;;;;2.77;1.40;;;17.70;61.90;;;;;;10439241;28;20221;-62
2021/12/21 14:43:01;;;;;;;1.87;1.60;;;17.70;61.90;;;;;;10450763;28;20193;-63
2021/12/21 14:48:28;;;;;;;2.00;1.60;;;17.70;61.80;;;;;;10438177;28;20578;-61
2021/12/21 14:54:03;;;;;;;3.10;1.97;;;17.70;61.80;;;;;;10437394;28;20555;-62
2021/12/21 14:59:32;;;;;;;5.80;2.10;;;17.70;61.80;;;;;;10442922;28;20235;-63
2021/12/21 15:04:58;;;;;;;423.80;154.20;;;17.80;61.90;;;;;;10435112;28;20194;-59
2021/12/21 15:10:23;;;;;;;396.88;176.35;;;17.80;62.00;;;;;;10447383;28;20510;-59
2021/12/21 15:15:46;;;;;;;200.90;82.27;;;18.50;59.90;;;;;;10444853;28;20284;-57
2021/12/21 15:21:10;;;;;;;200.77;88.43;;;18.10;61.20;;;;;;10442740;28;20431;-60
2021/12/21 15:26:32;;;;;;;138.50;56.87;;;18.50;59.70;;;;;;10437488;28;20200;-61
2021/12/21 15:31:55;;;;;;;114.93;49.20;;;18.10;60.90;;;;;;10450067;28;20221;-64
2021/12/21 15:37:18;;;;;;;90.37;39.90;;;18.00;61.50;;;;;;10438314;28;20225;-59
2021/12/21 15:42:40;;;;;;;80.20;33.37;;;17.90;61.80;;;;;;10445481;28;20200;-61
2021/12/21 15:48:03;;;;;;;68.57;28.30;;;17.80;61.80;;;;;;10444233;28;20216;-60
2021/12/21 15:53:27;;;;;;;53.93;23.73;;;17.80;61.90;;;;;;10445399;28;20319;-60
2021/12/21 15:58:49;;;;;;;52.47;21.70;;;17.80;61.90;;;;;;10447897;28;20300;-63
2021/12/21 16:04:11;;;;;;;37.70;16.60;;;17.80;61.90;;;;;;10450773;28;20201;-63
2021/12/21 16:09:35;;;;;;;41.70;17.23;;;17.70;61.90;;;;;;10449005;28;20295;-63
2021/12/21 16:14:57;;;;;;;33.50;15.60;;;17.70;62.00;;;;;;10437070;28;20678;-62
2021/12/21 16:20:19;;;;;;;31.83;14.67;;;17.70;62.30;;;;;;10447120;28;20209;-62
2021/12/21 16:30:58;;;;;;;30.97;13.70;;;17.70;62.40;;;;;;10399903;28;20257;-65
2021/12/21 16:36:23;;;;;;;29.00;12.57;;;17.80;62.50;;;;;;10413689;28;20194;-65
2021/12/21 16:41:46;;;;;;;25.50;11.50;;;17.80;62.50;;;;;;10401957;28;20189;-63
2021/12/21 16:47:09;;;;;;;23.50;11.17;;;17.80;62.40;;;;;;10405591;28;20220;-64
2021/12/21 16:52:31;;;;;;;25.87;11.33;;;17.80;62.40;;;;;;10405598;28;20217;-63
2021/12/21 16:57:55;;;;;;;21.17;10.23;;;17.80;62.40;;;;;;10406440;28;20221;-63
2021/12/21 17:03:18;;;;;;;21.27;10.57;;;17.80;62.40;;;;;;10412176;28;20783;-65
2021/12/21 17:08:43;;;;;;;18.57;8.90;;;17.90;62.10;;;;;;10404521;28;20221;-66
2021/12/21 17:14:06;;;;;;;18.93;9.03;;;17.90;62.30;;;;;;10413378;28;20699;-66
2021/12/21 17:19:30;;;;;;;15.67;8.77;;;17.80;62.30;;;;;;10411503;28;20224;-67
2021/12/21 17:24:52;;;;;;;15.03;8.23;;;17.80;62.30;;;;;;10412797;28;20207;-64
2021/12/21 17:30:15;;;;;;;14.10;7.70;;;17.80;62.30;;;;;;10410969;28;20228;-65
2021/12/21 17:35:39;;;;;;;15.10;7.70;;;17.80;62.30;;;;;;10412327;28;20205;-66
2021/12/21 17:41:01;;;;;;;12.80;7.30;;;17.80;62.20;;;;;;10412804;28;20228;-65
2021/12/21 17:46:24;;;;;;;14.23;7.30;;;17.80;62.20;;;;;;10413017;28;20194;-66
2021/12/21 17:51:47;;;;;;;14.30;6.73;;;17.80;62.20;;;;;;10411149;28;20679;-67
2021/12/21 17:57:10;;;;;;;12.20;6.53;;;17.80;62.10;;;;;;10410786;28;20222;-65
2021/12/21 18:02:32;;;;;;;14.00;6.73;;;17.80;62.10;;;;;;10405415;28;20186;-65
2021/12/21 18:07:55;;;;;;;13.73;6.90;;;17.80;62.00;;;;;;10410019;28;20244;-64
2021/12/21 18:13:17;;;;;;;12.90;6.37;;;17.80;62.00;;;;;;10408797;28;20233;-64
2021/12/21 18:18:45;;;;;;;11.77;6.40;;;17.80;62.00;;;;;;10408574;28;20230;-65
2021/12/21 18:24:09;;;;;;;13.27;6.87;;;17.80;62.00;;;;;;10411440;28;20197;-64
2021/12/21 18:29:31;;;;;;;13.60;6.60;;;17.80;61.90;;;;;;10403001;28;20233;-65
2021/12/21 18:34:54;;;;;;;13.23;7.00;;;17.80;61.90;;;;;;10407958;28;20687;-65
2021/12/21 18:40:22;;;;;;;13.23;6.97;;;17.80;61.90;;;;;;10409361;28;20222;-65
2021/12/21 18:45:44;;;;;;;10.30;6.23;;;17.80;61.80;;;;;;10403734;28;20201;-65
2021/12/21 18:51:06;;;;;;;13.67;7.30;;;17.80;61.80;;;;;;10408995;28;20705;-65
2021/12/21 18:56:30;;;;;;;12.13;6.63;;;17.80;61.80;;;;;;10409073;28;20204;-65
2021/12/21 19:01:52;;;;;;;10.57;6.37;;;17.80;61.80;;;;;;10403099;28;20194;-65
2021/12/21 19:07:15;;;;;;;11.50;6.63;;;17.80;61.80;;;;;;10405825;28;20218;-66
2021/12/21 19:12:38;;;;;;;12.33;6.20;;;17.80;61.80;;;;;;10408074;28;20210;-65
2021/12/21 19:18:01;;;;;;;10.23;5.70;;;17.80;61.70;;;;;;10408777;28;20627;-65
2021/12/21 19:23:24;;;;;;;11.27;5.70;;;17.80;61.80;;;;;;10399866;28;20202;-65
2021/12/21 19:28:49;;;;;;;11.23;5.80;;;17.80;61.80;;;;;;10407022;28;20244;-65
2021/12/21 19:34:11;;;;;;;11.03;5.83;;;17.80;61.70;;;;;;10398379;28;20218;-65
2021/12/21 19:39:33;;;;;;;9.13;5.00;;;17.80;61.70;;;;;;10405278;28;20217;-64
2021/12/21 19:44:57;;;;;;;7.47;5.00;;;17.80;61.60;;;;;;10378298;28;20205;-66
2021/12/21 19:50:22;;;;;;;9.37;4.70;;;17.80;61.50;;;;;;10408381;28;20579;-66
2021/12/21 19:55:45;;;;;;;9.03;4.73;;;17.80;61.60;;;;;;10408988;28;20698;-65
2021/12/21 20:01:09;;;;;;;6.73;4.23;;;17.70;61.60;;;;;;10407820;28;20213;-65
2021/12/21 20:06:32;;;;;;;8.03;5.03;;;17.70;61.80;;;;;;10399738;28;20202;-67
2021/12/21 20:11:56;;;;;;;5.97;4.53;;;17.70;61.80;;;;;;10401548;28;20227;-65
2021/12/21 20:17:20;;;;;;;8.50;5.20;;;17.70;61.80;;;;;;10402682;28;20216;-66
2021/12/21 20:22:42;;;;;;;7.07;4.23;;;17.60;61.70;;;;;;10404264;28;20194;-66
2021/12/21 20:28:05;;;;;;;5.73;3.80;;;17.60;61.80;;;;;;10403881;28;20236;-66
2021/12/21 20:33:29;;;;;;;6.07;4.10;;;17.60;61.80;;;;;;10402577;28;20270;-66
2021/12/21 20:38:51;;;;;;;7.57;4.20;;;17.60;61.80;;;;;;10410761;28;20213;-66
2021/12/21 20:44:13;;;;;;;7.20;4.00;;;17.60;61.80;;;;;;10413330;28;21382;-67
2021/12/21 20:49:37;;;;;;;6.80;3.97;;;17.60;61.80;;;;;;10408256;28;20580;-65
2021/12/21 20:55:00;;;;;;;7.17;4.20;;;17.60;61.80;;;;;;10410177;28;20236;-65
2021/12/21 21:00:22;;;;;;;5.43;3.60;;;17.60;61.80;;;;;;10409425;28;20833;-66
2021/12/21 21:05:46;;;;;;;5.30;3.63;;;17.60;61.80;;;;;;10415770;28;20181;-66
2021/12/21 21:11:09;;;;;;;5.47;3.57;;;17.60;61.80;;;;;;10410922;28;20218;-65
2021/12/21 21:16:31;;;;;;;5.73;3.33;;;17.60;61.80;;;;;;10407552;28;20201;-66
2021/12/21 21:21:55;;;;;;;6.07;3.40;;;17.50;61.70;;;;;;10408731;28;20190;-66
2021/12/21 21:27:17;;;;;;;4.73;3.10;;;17.60;61.80;;;;;;10443528;28;20312;-66
2021/12/21 21:32:40;;;;;;;5.13;3.30;;;17.50;61.70;;;;;;10416116;28;20220;-66
2021/12/21 21:38:04;;;;;;;4.80;3.17;;;17.50;61.70;;;;;;10413203;28;20221;-66
2021/12/21 21:43:26;;;;;;;5.40;3.50;;;17.50;61.70;;;;;;10413607;28;20193;-65
2021/12/21 21:48:49;;;;;;;5.80;3.20;;;17.50;61.70;;;;;;10412768;28;20246;-66
2021/12/21 21:54:13;;;;;;;4.87;3.17;;;17.50;61.70;;;;;;10413975;28;20221;-66
2021/12/21 21:59:35;;;;;;;3.67;2.70;;;17.50;61.70;;;;;;10411474;28;20213;-66
2021/12/21 22:04:58;;;;;;;4.67;3.13;;;17.50;61.70;;;;;;10412411;28;20189;-66
2021/12/21 22:10:21;;;;;;;3.93;2.90;;;17.50;61.70;;;;;;10413093;28;20218;-65
2021/12/21 22:15:43;;;;;;;4.57;2.70;;;17.50;61.70;;;;;;10412043;28;20214;-66
2021/12/21 22:21:06;;;;;;;3.97;2.57;;;17.50;61.60;;;;;;10409113;28;20587;-66
2021/12/21 22:26:30;;;;;;;4.47;3.03;;;17.50;61.70;;;;;;10426336;22;20206;-63
2021/12/21 22:31:53;;;;;;;3.33;2.60;;;17.50;61.70;;;;;;10442338;28;20220;-64
2021/12/21 22:37:15;;;;;;;3.63;2.57;;;17.50;61.60;;;;;;10438852;28;20225;-63
2021/12/21 22:42:38;;;;;;;3.63;2.80;;;17.50;61.60;;;;;;10452923;28;20200;-63
2021/12/21 22:48:01;;;;;;;3.23;2.60;;;17.50;61.60;;;;;;10447204;28;20228;-63
2021/12/21 22:53:24;;;;;;;3.27;2.60;;;17.50;61.60;;;;;;10451168;28;20219;-62
2021/12/21 22:58:47;;;;;;;3.93;2.63;;;17.50;61.60;;;;;;10450320;28;20217;-62
2021/12/21 23:04:09;;;;;;;2.60;2.17;;;17.50;61.60;;;;;;10451150;28;20190;-62
2021/12/21 23:09:32;;;;;;;3.73;2.23;;;17.50;61.60;;;;;;10447267;28;20228;-62
2021/12/21 23:14:55;;;;;;;4.10;2.70;;;17.50;61.60;;;;;;10449835;28;20224;-62
2021/12/21 23:20:18;;;;;;;2.87;2.37;;;17.50;61.60;;;;;;10445450;28;20263;-63
2021/12/21 23:25:41;;;;;;;3.70;2.30;;;17.50;61.60;;;;;;10451174;28;20554;-62
2021/12/21 23:31:04;;;;;;;2.53;2.10;;;17.50;61.50;;;;;;10448849;28;20776;-63
2021/12/21 23:36:27;;;;;;;2.40;2.00;;;17.50;61.50;;;;;;10450527;28;20705;-63
2021/12/21 23:41:49;;;;;;;3.70;2.47;;;17.50;61.40;;;;;;10450654;28;20197;-62
2021/12/21 23:47:12;;;;;;;2.30;1.93;;;17.40;61.40;;;;;;10450404;28;20213;-62
2021/12/21 23:52:35;;;;;;;3.07;2.43;;;17.40;61.40;;;;;;10449695;28;20220;-63
2021/12/21 23:57:57;;;;;;;3.33;2.20;;;17.50;61.40;;;;;;10449452;28;20217;-63
